Time;durP1;ratioP1;P1;durP2;ratioP2;P2;SDS_P1;SDS_P2;PMS_P1;PMS_P2;Temp;Humidity;BMP_temperature;BMP_pressure;BME280_temperature;BME280_humidity;BME280_pressure;Samples;Min_cycle;Max_cycle;Signal;HPM_P1;HPM_P2
2021/01/01 00:01:37;;;;;;;78.28;33.58;;;;;;;2.90;75.24;92945.00;5073020;28;20548;-47
2021/01/01 00:04:03;;;;;;;83.63;32.38;;;;;;;2.80;75.22;92936.41;5072841;28;21403;-49
2021/01/01 00:06:29;;;;;;;81.55;31.63;;;;;;;2.62;75.60;92942.53;5067164;28;20109;-47
2021/01/01 00:08:55;;;;;;;69.25;33.53;;;;;;;2.71;74.72;92936.75;5072223;28;20444;-46
2021/01/01 00:11:21;;;;;;;60.15;29.83;;;;;;;2.72;75.03;92956.56;5072382;28;20086;-50
2021/01/01 00:13:46;;;;;;;60.72;30.90;;;;;;;2.43;76.30;92947.16;5072604;28;20017;-50
2021/01/01 00:16:12;;;;;;;84.88;37.53;;;;;;;2.44;75.55;92945.19;5072475;28;20013;-52
2021/01/01 00:18:39;;;;;;;91.00;40.58;;;;;;;2.36;76.37;92936.09;5072711;28;20035;-48
2021/01/01 00:21:04;;;;;;;89.45;38.88;;;;;;;2.43;76.54;92939.00;5073043;28;20028;-51
2021/01/01 00:23:30;;;;;;;74.25;34.65;;;;;;;2.44;76.08;92948.66;5057255;28;20058;-52
2021/01/01 00:25:55;;;;;;;98.78;39.88;;;;;;;2.35;76.13;92940.78;5062663;28;20020;-49
2021/01/01 00:28:21;;;;;;;68.07;31.05;;;;;;;2.38;76.62;92945.25;5062081;28;20029;-53
2021/01/01 00:30:46;;;;;;;31.48;16.90;;;;;;;2.26;75.69;92944.59;5061404;28;20024;-49
2021/01/01 00:33:12;;;;;;;19.75;9.00;;;;;;;2.05;75.04;92945.50;5052198;28;20033;-48
2021/01/01 00:35:37;;;;;;;10.63;5.90;;;;;;;1.78;75.72;92960.00;5052661;28;20024;-47
2021/01/01 00:38:03;;;;;;;11.95;7.75;;;;;;;1.85;76.63;92949.34;5074887;28;20082;-56
2021/01/01 00:40:28;;;;;;;21.45;10.85;;;;;;;1.85;76.45;92954.78;5092169;28;20026;-51
2021/01/01 00:42:54;;;;;;;12.55;7.50;;;;;;;1.77;77.79;92959.28;5081350;28;20028;-48
2021/01/01 00:45:19;;;;;;;26.35;10.85;;;;;;;1.52;78.21;92946.78;5072298;28;20051;-51
2021/01/01 00:47:48;;;;;;;43.05;17.98;;;;;;;1.90;77.12;92962.19;5072435;28;20027;-51
2021/01/01 00:50:14;;;;;;;27.42;12.80;;;;;;;2.00;77.48;92959.88;5072543;28;20103;-50
2021/01/01 00:52:39;;;;;;;31.92;16.85;;;;;;;1.93;77.14;92950.25;5072447;28;20029;-53
2021/01/01 00:55:06;;;;;;;47.90;22.70;;;;;;;1.84;77.66;92961.44;5072087;28;20382;-50
2021/01/01 00:57:32;;;;;;;59.97;24.13;;;;;;;1.89;77.40;92957.22;5072004;28;20059;-52
2021/01/01 00:59:58;;;;;;;74.13;20.25;;;;;;;1.86;78.30;92961.72;5071780;28;20020;-52
2021/01/01 01:02:23;;;;;;;38.50;16.17;;;;;;;2.00;76.87;92970.75;5071653;28;20082;-47
2021/01/01 01:04:49;;;;;;;37.58;12.77;;;;;;;1.69;77.40;92973.94;5072496;28;20017;-50
2021/01/01 01:07:14;;;;;;;27.65;13.35;;;;;;;1.63;77.45;92960.34;5072679;28;20039;-49
2021/01/01 01:09:40;;;;;;;60.47;13.05;;;;;;;1.73;77.46;92979.84;5072588;28;20033;-48
2021/01/01 01:12:05;;;;;;;110.07;13.88;;;;;;;1.62;78.46;92980.66;5072159;28;20036;-52
2021/01/01 01:14:30;;;;;;;66.43;13.85;;;;;;;1.71;78.18;92982.31;5072478;28;20028;-49
2021/01/01 01:16:56;;;;;;;48.53;13.32;;;;;;;1.62;78.65;92988.06;5072490;28;20062;-50
2021/01/01 01:19:21;;;;;;;58.65;13.32;;;;;;;1.38;78.88;92977.78;5072542;28;20032;-49
2021/01/01 01:21:47;;;;;;;67.57;14.95;;;;;;;1.49;79.68;92983.91;5072380;28;20077;-50
2021/01/01 01:24:12;;;;;;;88.75;14.80;;;;;;;1.65;78.91;92995.19;5072366;28;20032;-53
2021/01/01 01:26:38;;;;;;;68.72;15.85;;;;;;;1.30;79.20;92993.88;5072290;28;20035;-51
2021/01/01 01:29:03;;;;;;;52.22;13.05;;;;;;;1.23;79.73;93002.56;5054494;28;20039;-52
2021/01/01 01:31:29;;;;;;;36.40;11.68;;;;;;;1.35;79.60;93003.25;5072311;28;20024;-53
2021/01/01 01:33:54;;;;;;;32.53;13.07;;;;;;;1.17;79.04;92977.34;5072416;28;20029;-49
2021/01/01 01:36:20;;;;;;;40.83;16.38;;;;;;;1.45;78.55;92999.75;5071791;28;20047;-55
2021/01/01 01:38:45;;;;;;;24.33;9.88;;;;;;;1.48;77.14;92990.59;5072044;28;20020;-53
2021/01/01 01:41:11;;;;;;;20.00;9.73;;;;;;;1.40;76.98;93002.50;5072167;28;20039;-53
2021/01/01 01:43:36;;;;;;;27.25;13.43;;;;;;;1.38;78.13;93002.25;5071824;28;20028;-49
2021/01/01 01:46:02;;;;;;;53.22;21.50;;;;;;;1.30;78.29;93007.47;5071829;28;20025;-52
2021/01/01 01:48:30;;;;;;;52.15;20.55;;;;;;;1.46;77.66;93008.66;5071693;28;20031;-53
2021/01/01 01:50:56;;;;;;;31.00;17.67;;;;;;;1.40;77.53;93005.97;5054113;28;20028;-54
2021/01/01 01:53:22;;;;;;;24.55;13.88;;;;;;;1.37;76.75;93017.84;5053840;28;20035;-51
2021/01/01 01:55:49;;;;;;;15.43;10.18;;;;;;;1.42;75.99;93016.34;5054111;28;20024;-52
2021/01/01 01:58:15;;;;;;;11.90;6.50;;;;;;;1.20;76.04;93021.84;5053979;28;20024;-49
2021/01/01 02:03:07;;;;;;;12.00;6.85;;;;;;;1.23;77.19;93040.63;5071682;28;20119;-52
2021/01/01 02:05:32;;;;;;;21.17;7.25;;;;;;;1.20;76.89;93038.91;5053821;28;20056;-54
2021/01/01 02:07:58;;;;;;;17.33;8.10;;;;;;;1.17;75.94;93017.41;5053494;28;20498;-51
2021/01/01 02:10:24;;;;;;;11.85;7.25;;;;;;;1.07;76.21;93038.69;5053337;28;20036;-52
2021/01/01 02:12:49;;;;;;;16.48;8.52;;;;;;;1.01;77.16;93032.53;5037064;28;20039;-54
2021/01/01 02:15:15;;;;;;;17.90;6.88;;;;;;;1.06;75.79;93033.75;5071523;28;20024;-51
2021/01/01 02:17:41;;;;;;;14.45;6.47;;;;;;;1.09;75.42;93027.31;5071545;28;20116;-51
2021/01/01 02:20:10;;;;;;;10.10;5.30;;;;;;;1.01;75.47;93029.06;5071549;28;20107;-49
2021/01/01 02:22:36;;;;;;;8.18;4.70;;;;;;;1.03;75.33;93032.00;5071502;28;20048;-50
2021/01/01 02:25:03;;;;;;;7.50;4.45;;;;;;;1.02;74.64;93027.84;5071459;28;20052;-48
2021/01/01 02:27:29;;;;;;;9.85;5.65;;;;;;;1.04;74.39;93030.78;5071347;28;20466;-49
2021/01/01 02:29:54;;;;;;;21.42;10.10;;;;;;;0.82;74.72;93014.53;5071477;28;20033;-49
2021/01/01 02:32:20;;;;;;;28.90;14.73;;;;;;;1.02;75.68;93036.72;5071423;28;20024;-46
2021/01/01 02:34:45;;;;;;;39.75;15.10;;;;;;;1.15;77.12;93036.94;5071294;28;20489;-46
2021/01/01 02:37:11;;;;;;;34.05;13.70;;;;;;;1.22;76.80;93039.13;5071286;28;20035;-50
2021/01/01 02:39:37;;;;;;;30.63;13.35;;;;;;;0.97;76.63;93034.75;5071279;28;20020;-48
2021/01/01 02:42:04;;;;;;;59.70;24.52;;;;;;;1.05;76.66;93024.09;5071168;28;20032;-49
2021/01/01 02:44:29;;;;;;;52.85;25.58;;;;;;;1.16;77.00;93048.53;5070714;28;20044;-52
2021/01/01 02:47:02;;;;;;;77.50;28.60;;;;;;;1.04;77.20;93047.09;5071178;28;20119;-49
2021/01/01 02:49:28;;;;;;;62.90;25.10;;;;;;;1.10;76.69;93051.28;5075376;28;20055;-46
2021/01/01 02:51:53;;;;;;;61.30;23.40;;;;;;;1.19;76.20;93048.28;5074340;28;20398;-46
2021/01/01 02:54:19;;;;;;;53.25;21.75;;;;;;;1.35;75.66;93050.22;5075098;28;20033;-48
2021/01/01 02:56:44;;;;;;;47.70;21.70;;;;;;;1.17;75.74;93039.88;5074934;28;20028;-47
2021/01/01 02:59:10;;;;;;;37.38;16.23;;;;;;;0.93;76.20;93023.41;5075277;28;20030;-47
2021/01/01 03:01:35;;;;;;;24.30;12.77;;;;;;;0.99;75.32;93028.81;5075169;28;20016;-48
2021/01/01 03:04:01;;;;;;;23.77;10.10;;;;;;;1.01;75.25;93037.97;5074974;28;20028;-48
2021/01/01 03:06:26;;;;;;;18.58;10.23;;;;;;;0.97;74.91;93032.03;5075044;28;20111;-46
2021/01/01 03:08:51;;;;;;;19.90;10.68;;;;;;;0.96;75.11;93010.78;5074932;28;20025;-47
2021/01/01 03:11:19;;;;;;;28.98;14.10;;;;;;;1.17;74.47;93039.88;5075014;28;20512;-48
2021/01/01 03:13:44;;;;;;;21.95;12.15;;;;;;;0.89;75.70;93022.88;5074935;28;20033;-45
2021/01/01 03:16:10;;;;;;;39.55;18.40;;;;;;;1.11;75.51;93043.84;5074893;28;20097;-46
2021/01/01 03:18:35;;;;;;;31.58;13.90;;;;;;;1.23;74.18;93027.03;5075016;28;20058;-53
2021/01/01 03:21:00;;;;;;;47.95;22.77;;;;;;;1.43;73.73;93037.59;5071697;28;20048;-45
2021/01/01 03:23:26;;;;;;;34.83;16.45;;;;;;;1.33;73.81;93036.38;5063243;28;20086;-46
2021/01/01 03:25:52;;;;;;;28.42;14.77;;;;;;;0.96;74.58;93040.66;5062584;28;20025;-46
2021/01/01 03:28:17;;;;;;;23.15;11.05;;;;;;;0.89;74.17;93039.19;5065393;28;20103;-49
2021/01/01 03:30:43;;;;;;;15.82;9.48;;;;;;;0.70;74.34;93038.22;5064207;28;20493;-45
2021/01/01 03:33:08;;;;;;;17.45;8.63;;;;;;;0.52;74.83;93047.63;5058046;28;20033;-46
2021/01/01 03:35:34;;;;;;;16.65;8.80;;;;;;;0.53;75.55;93051.09;5054426;28;20028;-47
2021/01/01 03:38:00;;;;;;;17.23;8.93;;;;;;;0.36;75.54;93017.75;5054429;28;20500;-47
2021/01/01 03:40:25;;;;;;;16.83;10.18;;;;;;;0.08;76.19;93025.88;5054456;28;20156;-47
2021/01/01 03:42:51;;;;;;;17.17;8.02;;;;;;;0.27;76.30;93037.75;5054281;28;20075;-48
2021/01/01 03:45:16;;;;;;;11.70;7.68;;;;;;;0.42;77.39;93048.34;5054178;28;20115;-47
2021/01/01 03:47:42;;;;;;;11.45;6.70;;;;;;;0.56;76.97;93058.25;5054294;28;20025;-47
2021/01/01 03:50:08;;;;;;;13.52;7.38;;;;;;;0.65;75.73;93037.00;5054015;28;20033;-49
2021/01/01 03:52:34;;;;;;;14.25;7.10;;;;;;;0.60;75.64;93050.59;5054234;28;20040;-45
2021/01/01 03:54:59;;;;;;;13.93;8.07;;;;;;;0.30;77.02;93047.63;5054216;28;20456;-46
2021/01/01 03:57:25;;;;;;;13.95;6.57;;;;;;;0.25;77.19;93058.47;5054102;28;20025;-46
2021/01/01 03:59:50;;;;;;;11.15;6.60;;;;;;;0.40;78.30;93062.44;5054138;28;20438;-47
2021/01/01 04:02:15;;;;;;;18.88;10.38;;;;;;;0.38;77.47;93050.59;5054068;28;20035;-48
2021/01/01 04:04:41;;;;;;;21.17;11.45;;;;;;;0.30;78.21;93050.34;5052516;28;20029;-45
2021/01/01 04:07:06;;;;;;;17.95;8.38;;;;;;;0.37;78.06;93041.69;5053821;28;20025;-49
2021/01/01 04:09:32;;;;;;;13.65;6.78;;;;;;;0.13;77.79;93051.56;5054072;28;20043;-46
2021/01/01 04:11:57;;;;;;;12.80;6.88;;;;;;;0.14;78.00;93051.06;5054156;28;20475;-49
2021/01/01 04:14:23;;;;;;;20.33;10.90;;;;;;;0.29;78.35;93056.25;5053827;28;20055;-48
2021/01/01 04:16:48;;;;;;;20.50;10.05;;;;;;;0.13;77.84;93035.25;5053577;28;20063;-48
2021/01/01 04:19:14;;;;;;;20.02;9.48;;;;;;;0.33;77.17;93052.06;5053703;28;20028;-52
2021/01/01 04:21:47;;;;;;;15.50;7.35;;;;;;;0.26;76.20;93030.09;5053729;28;20031;-51
2021/01/01 04:24:14;;;;;;;14.90;9.07;;;;;;;0.35;76.95;93024.41;5053876;28;20029;-47
2021/01/01 04:26:39;;;;;;;22.63;11.40;;;;;;;0.55;77.25;93068.38;5053685;28;20110;-49
2021/01/01 04:29:05;;;;;;;19.55;9.70;;;;;;;0.50;77.45;93069.09;5053372;28;20481;-48
2021/01/01 04:31:33;;;;;;;33.00;14.38;;;;;;;0.09;76.80;93070.06;5035515;28;20032;-47
2021/01/01 04:33:59;;;;;;;26.80;13.38;;;;;;;0.15;77.79;93068.09;5053493;28;20028;-49
2021/01/01 04:36:24;;;;;;;27.90;12.63;;;;;;;0.24;77.50;93076.72;5053492;28;20033;-49
2021/01/01 04:38:50;;;;;;;25.55;11.20;;;;;;;0.00;76.96;93074.47;5053381;28;20478;-51
2021/01/01 04:41:15;;;;;;;21.95;11.20;;;;;;;-0.22;77.59;93079.81;5053226;28;20078;-48
2021/01/01 04:43:41;;;;;;;25.90;13.60;;;;;;;-0.13;77.84;93082.31;5035176;28;20032;-47
2021/01/01 04:46:06;;;;;;;17.52;8.15;;;;;;;-0.23;76.96;93051.22;5053238;28;20029;-48
2021/01/01 04:48:32;;;;;;;12.60;6.80;;;;;;;-0.23;76.42;93089.19;5053071;28;20086;-49
2021/01/01 04:50:58;;;;;;;14.75;6.55;;;;;;;-0.32;77.01;93094.06;5035472;28;20036;-50
2021/01/01 04:53:24;;;;;;;12.75;7.18;;;;;;;-0.48;77.02;93092.81;5053190;28;20500;-49
2021/01/01 04:55:50;;;;;;;22.77;11.95;;;;;;;-0.59;77.78;93078.44;5053224;28;20053;-50
2021/01/01 04:58:16;;;;;;;12.95;8.20;;;;;;;-0.36;77.77;93088.91;5052868;28;20428;-48
2021/01/01 05:00:42;;;;;;;16.58;8.95;;;;;;;-0.35;77.80;93100.50;5053033;28;20021;-50
2021/01/01 05:03:07;;;;;;;18.15;9.00;;;;;;;-0.30;77.78;93095.06;5053037;28;20021;-49
2021/01/01 05:05:32;;;;;;;13.73;8.45;;;;;;;-0.29;77.95;93096.56;5052946;28;20075;-49
2021/01/01 05:07:58;;;;;;;16.30;8.70;;;;;;;-0.32;78.00;93097.53;5052792;28;20453;-51
2021/01/01 05:10:23;;;;;;;21.85;9.38;;;;;;;-0.24;76.82;93103.97;5052243;28;20040;-49
2021/01/01 05:12:49;;;;;;;29.98;12.68;;;;;;;-0.14;76.50;93110.69;5053042;28;20013;-48
2021/01/01 05:15:33;;;;;;;26.50;12.60;;;;;;;-0.44;76.95;93104.16;5035027;28;20536;-50
2021/01/01 05:17:58;;;;;;;22.88;11.32;;;;;;;-0.28;77.57;93108.91;5052672;28;20016;-51
2021/01/01 05:20:27;;;;;;;26.00;11.98;;;;;;;-0.38;77.48;93110.34;5052553;28;20035;-52
2021/01/01 05:22:56;;;;;;;22.65;11.27;;;;;;;-0.47;77.71;93099.69;5052301;28;20108;-48
2021/01/01 05:25:21;;;;;;;25.67;11.40;;;;;;;-0.49;77.48;93088.59;5051288;28;20039;-49
2021/01/01 05:27:47;;;;;;;21.50;11.13;;;;;;;-0.35;77.93;93120.22;5051187;28;20028;-50
2021/01/01 05:30:15;;;;;;;22.08;10.40;;;;;;;-0.18;78.13;93128.44;5052281;28;20017;-48
2021/01/01 05:32:50;;;;;;;46.55;21.25;;;;;;;-0.42;78.44;93122.66;5052352;28;20573;-49
2021/01/01 05:35:25;;;;;;;30.38;14.07;;;;;;;-0.24;77.53;93130.38;5052146;28;20111;-47
2021/01/01 05:37:50;;;;;;;28.98;14.07;;;;;;;-0.15;76.34;93127.44;5052481;28;20013;-48
2021/01/01 05:40:16;;;;;;;28.85;14.75;;;;;;;-0.06;75.32;93130.69;5052274;28;20513;-50
2021/01/01 05:42:41;;;;;;;33.05;15.38;;;;;;;0.01;75.34;93129.47;5050921;28;20031;-48
2021/01/01 05:45:18;;;;;;;28.35;14.85;;;;;;;-0.19;75.83;93129.66;5051868;28;20049;-46
2021/01/01 05:48:03;;;;;;;31.90;14.43;;;;;;;-0.37;75.64;93132.78;5052082;28;20086;-49
2021/01/01 05:50:29;;;;;;;13.60;7.45;;;;;;;-0.82;76.24;93139.91;5051853;28;20482;-51
2021/01/01 05:53:09;;;;;;;17.55;8.63;;;;;;;-0.71;76.05;93139.25;5052059;28;20079;-51
2021/01/01 05:55:35;;;;;;;16.00;9.57;;;;;;;-0.52;75.71;93140.34;5051722;28;20513;-53
2021/01/01 05:58:00;;;;;;;17.58;8.90;;;;;;;-0.59;76.57;93146.97;5051817;28;20104;-54
2021/01/01 06:00:26;;;;;;;15.30;8.32;;;;;;;-0.82;77.17;93148.03;5051956;28;20016;-52
2021/01/01 06:02:53;;;;;;;18.40;11.48;;;;;;;-0.47;77.42;93145.03;5051834;28;20021;-50
2021/01/01 06:05:19;;;;;;;46.53;17.85;;;;;;;-0.45;76.75;93154.19;5034018;28;20027;-48
2021/01/01 06:07:45;;;;;;;34.83;16.38;;;;;;;-0.38;76.29;93156.44;5033717;28;20024;-47
2021/01/01 06:10:11;;;;;;;32.40;17.15;;;;;;;-0.32;76.66;93151.03;5050507;28;20055;-48
2021/01/01 06:12:38;;;;;;;31.90;16.52;;;;;;;-0.26;76.90;93160.69;5051511;28;20071;-50
2021/01/01 06:15:06;;;;;;;25.67;13.82;;;;;;;-0.20;75.30;93168.88;5051639;28;20117;-50
2021/01/01 06:17:51;;;;;;;33.67;16.75;;;;;;;-0.21;74.76;93176.25;5051683;28;20079;-48
2021/01/01 06:20:23;;;;;;;29.80;13.25;;;;;;;-0.27;74.11;93180.91;5051537;28;20424;-47
2021/01/01 06:23:00;;;;;;;20.23;12.48;;;;;;;-0.70;74.58;93187.56;5050825;28;20567;-51
2021/01/01 06:25:26;;;;;;;19.88;9.52;;;;;;;-0.91;74.98;93180.75;5051358;28;20088;-47
2021/01/01 06:27:52;;;;;;;26.92;14.05;;;;;;;-0.92;76.27;93184.69;5051331;28;20485;-49
2021/01/01 06:30:18;;;;;;;32.30;14.68;;;;;;;-0.92;76.68;93184.69;5051362;28;20016;-51
2021/01/01 06:32:44;;;;;;;30.13;14.27;;;;;;;-0.85;76.88;93176.88;5050139;28;20040;-49
2021/01/01 06:35:14;;;;;;;46.35;22.50;;;;;;;-0.66;77.13;93198.91;5050121;28;20401;-49
2021/01/01 06:37:42;;;;;;;64.78;32.00;;;;;;;-0.49;76.68;93194.34;5051240;28;20460;-49
2021/01/01 06:40:31;;;;;;;142.32;58.53;;;;;;;-0.42;76.59;93195.88;5051206;28;20417;-50
2021/01/01 06:43:04;;;;;;;130.18;57.42;;;;;;;-0.34;76.51;93208.50;5044729;28;20577;-50
2021/01/01 06:45:29;;;;;;;138.60;55.58;;;;;;;-0.28;76.29;93203.84;5049725;28;20049;-54
2021/01/01 06:47:55;;;;;;;149.30;60.63;;;;;;;-0.37;76.19;93193.19;5058662;28;20051;-51
2021/01/01 06:50:27;;;;;;;148.77;63.08;;;;;;;-0.17;74.82;93211.28;5071149;28;20020;-54
2021/01/01 06:53:04;;;;;;;135.77;58.70;;;;;;;-0.16;74.57;93207.34;5071169;28;20025;-52
2021/01/01 06:55:33;;;;;;;121.28;51.72;;;;;;;-0.27;75.11;93191.03;5064274;28;20045;-48
2021/01/01 06:57:59;;;;;;;121.25;50.88;;;;;;;-0.14;74.92;93197.50;5051002;28;20014;-51
2021/01/01 07:00:49;;;;;;;108.65;49.22;;;;;;;-0.12;74.97;93203.19;5051154;28;20052;-47
2021/01/01 07:03:29;;;;;;;101.78;45.50;;;;;;;-0.09;74.60;93212.34;5051153;28;20025;-50
2021/01/01 07:05:57;;;;;;;70.53;34.47;;;;;;;-0.25;74.97;93205.59;5061373;28;20048;-52
2021/01/01 07:08:55;;;;;;;67.28;31.02;;;;;;;-0.44;76.36;93215.34;5070885;28;20100;-47
2021/01/01 07:11:23;;;;;;;71.90;32.53;;;;;;;-0.38;76.28;93223.50;5026790;28;20033;-47
2021/01/01 07:13:53;;;;;;;63.77;32.33;;;;;;;-0.12;76.33;93224.91;5070892;28;20028;-47
2021/01/01 07:16:21;;;;;;;66.95;31.17;;;;;;;-0.11;76.34;93226.38;5070842;28;20037;-50
2021/01/01 07:18:46;;;;;;;70.72;34.83;;;;;;;0.11;76.00;93228.44;5070977;28;20031;-54
2021/01/01 07:21:14;;;;;;;81.60;39.75;;;;;;;0.23;76.64;93237.41;5071127;28;20505;-49
2021/01/01 07:23:40;;;;;;;76.10;35.75;;;;;;;0.45;75.45;93232.06;5070954;28;20023;-55
2021/01/01 07:26:06;;;;;;;69.60;35.05;;;;;;;0.52;75.84;93232.31;5070875;28;20021;-50
2021/01/01 07:28:32;;;;;;;65.50;30.75;;;;;;;0.84;75.87;93227.47;5052879;28;20064;-54
2021/01/01 07:30:58;;;;;;;63.17;30.95;;;;;;;1.19;75.67;93229.72;5058381;28;20063;-47
2021/01/01 07:33:29;;;;;;;64.53;34.00;;;;;;;1.92;74.49;93239.31;5051872;28;20043;-48
2021/01/01 07:36:02;;;;;;;63.25;30.08;;;;;;;2.12;71.50;93242.47;5054716;28;20033;-48
2021/01/01 07:38:30;;;;;;;37.60;22.52;;;;;;;1.94;72.01;93239.56;5057055;28;20013;-50
2021/01/01 07:40:58;;;;;;;37.75;20.70;;;;;;;2.09;72.67;93248.19;5062816;28;20017;-52
2021/01/01 07:43:24;;;;;;;36.05;17.80;;;;;;;2.29;72.51;93250.63;5063829;28;20035;-49
2021/01/01 07:45:49;;;;;;;38.50;18.85;;;;;;;2.55;72.25;93256.47;5064947;28;20017;-51
2021/01/01 07:48:15;;;;;;;45.83;24.95;;;;;;;2.76;71.75;93246.72;5061617;28;20025;-50
2021/01/01 07:50:40;;;;;;;38.53;22.05;;;;;;;3.25;70.62;93255.13;5053773;28;20473;-48
2021/01/01 07:53:06;;;;;;;38.33;21.63;;;;;;;3.68;68.91;93261.50;5061305;28;20516;-48
2021/01/01 07:55:33;;;;;;;51.47;23.00;;;;;;;4.28;67.92;93262.94;5073722;28;20028;-48
2021/01/01 07:58:05;;;;;;;37.03;18.20;;;;;;;4.73;65.99;93259.69;5073634;28;20048;-50
2021/01/01 08:00:32;;;;;;;26.42;15.13;;;;;;;5.27;64.17;93254.75;5073613;28;20032;-53
2021/01/01 08:02:59;;;;;;;23.13;13.32;;;;;;;5.89;62.82;93255.34;5073653;28;20031;-49
2021/01/01 08:05:26;;;;;;;16.90;11.35;;;;;;;7.30;60.03;93270.88;5061690;28;20028;-53
2021/01/01 08:07:51;;;;;;;13.30;9.35;;;;;;;8.90;54.98;93271.03;5056111;28;20067;-51
2021/01/01 08:10:33;;;;;;;16.17;10.82;;;;;;;10.31;50.95;93265.75;5059680;28;20449;-52
2021/01/01 08:12:59;;;;;;;11.77;8.00;;;;;;;10.45;47.69;93269.81;5070927;28;20470;-59
2021/01/01 08:15:30;;;;;;;85.25;33.55;;;;;;;10.34;48.98;93277.72;5073479;28;20054;-51
2021/01/01 08:17:57;;;;;;;17.58;8.50;;;;;;;10.86;47.34;93276.22;5073213;28;20031;-50
2021/01/01 08:20:23;;;;;;;8.48;5.72;;;;;;;11.49;46.35;93269.44;5055202;28;20021;-48
2021/01/01 08:22:49;;;;;;;7.00;4.60;;;;;;;12.11;44.29;93280.38;5073175;28;20027;-49
2021/01/01 08:25:18;;;;;;;11.75;6.57;;;;;;;12.75;43.92;93278.81;5051547;28;20386;-47
2021/01/01 08:27:44;;;;;;;18.40;11.32;;;;;;;13.15;42.35;93268.31;5054844;28;20021;-57
2021/01/01 08:30:11;;;;;;;11.85;8.07;;;;;;;13.71;41.90;93280.44;5052957;28;20082;-45
2021/01/01 08:32:37;;;;;;;20.17;11.52;;;;;;;14.45;39.89;93274.47;5057659;28;20029;-44
2021/01/01 08:35:03;;;;;;;20.50;15.52;;;;;;;14.90;38.20;93279.28;5052571;28;20047;-51
2021/01/01 08:37:29;;;;;;;29.95;20.83;;;;;;;15.56;37.18;93264.06;5039271;28;20032;-50
2021/01/01 08:40:02;;;;;;;14.15;11.07;;;;;;;16.06;36.78;93274.56;5052643;28;20017;-45
2021/01/01 08:42:34;;;;;;;10.73;8.60;;;;;;;16.47;35.76;93274.00;5057814;28;20017;-45
2021/01/01 08:45:00;;;;;;;9.82;6.75;;;;;;;16.90;35.35;93276.94;5060840;28;20120;-44
2021/01/01 08:47:39;;;;;;;5.97;4.72;;;;;;;17.26;34.99;93277.31;5057392;28;20032;-44
2021/01/01 08:50:17;;;;;;;5.60;3.55;;;;;;;16.43;36.09;93281.38;5057972;28;20481;-44
2021/01/01 08:52:47;;;;;;;15.85;11.23;;;;;;;15.69;37.34;93279.56;5068252;28;20422;-44
2021/01/01 08:55:13;;;;;;;11.65;6.53;;;;;;;15.29;38.19;93279.38;5059388;28;20075;-43
2021/01/01 08:57:39;;;;;;;7.32;5.10;;;;;;;16.44;37.14;93289.13;5056275;28;20025;-44
2021/01/01 09:00:06;;;;;;;6.18;3.63;;;;;;;17.37;35.02;93265.50;5062108;28;20037;-44
2021/01/01 09:02:33;;;;;;;8.77;5.25;;;;;;;16.60;37.06;93281.91;5062322;28;20107;-44
2021/01/01 09:05:10;;;;;;;20.85;11.60;;;;;;;15.24;40.35;93283.19;5063657;28;20040;-44
2021/01/01 09:07:36;;;;;;;10.88;5.72;;;;;;;15.77;38.49;93291.28;5072818;28;20052;-44
2021/01/01 09:10:17;;;;;;;56.83;26.35;;;;;;;16.80;35.10;93293.72;5072876;28;20075;-44
2021/01/01 09:12:44;;;;;;;16.90;8.60;;;;;;;16.98;33.40;93288.66;5066532;28;20031;-47
2021/01/01 09:15:10;;;;;;;8.88;4.32;;;;;;;18.00;32.95;93283.56;5055598;28;20033;-43
2021/01/01 09:17:36;;;;;;;9.52;5.63;;;;;;;18.99;31.21;93284.16;5051871;28;20024;-47
2021/01/01 09:20:04;;;;;;;5.72;3.88;;;;;;;19.80;30.43;93275.63;5054034;28;20117;-43
2021/01/01 09:22:33;;;;;;;8.02;4.85;;;;;;;20.14;29.91;93283.22;5053897;28;20048;-45
2021/01/01 09:25:19;;;;;;;9.60;5.60;;;;;;;21.02;28.01;93268.44;5069771;28;20038;-46
2021/01/01 09:27:46;;;;;;;7.32;3.42;;;;;;;21.53;27.70;93287.88;5070680;28;20035;-43
2021/01/01 09:30:15;;;;;;;4.70;2.78;;;;;;;21.04;28.10;93287.47;5055525;28;20090;-49
2021/01/01 09:32:45;;;;;;;4.68;2.95;;;;;;;20.47;28.55;93291.34;5068804;28;20037;-57
2021/01/01 09:35:12;;;;;;;5.82;3.10;;;;;;;20.94;28.78;93284.81;5069995;28;20036;-44
2021/01/01 09:37:37;;;;;;;5.97;3.55;;;;;;;21.53;28.11;93287.88;5066478;28;20050;-46
2021/01/01 09:40:03;;;;;;;7.15;4.22;;;;;;;22.37;24.90;93288.59;5065140;28;20037;-50
2021/01/01 09:42:28;;;;;;;8.23;5.20;;;;;;;22.03;26.02;93292.53;5059910;28;20473;-46
2021/01/01 09:44:54;;;;;;;5.40;3.83;;;;;;;20.96;24.77;93287.03;5054777;28;20055;-50
2021/01/01 09:47:19;;;;;;;3.40;2.33;;;;;;;21.46;25.75;93298.09;5071929;28;20412;-44
2021/01/01 09:49:45;;;;;;;7.50;3.45;;;;;;;20.75;25.78;93293.63;5071736;28;20028;-45
2021/01/01 09:52:10;;;;;;;4.05;2.38;;;;;;;21.55;23.90;93285.22;5072484;28;20021;-47
2021/01/01 09:54:35;;;;;;;6.55;3.70;;;;;;;20.83;26.42;93280.03;5081473;28;20028;-44
2021/01/01 09:57:01;;;;;;;5.53;3.45;;;;;;;20.92;26.29;93290.31;5071237;28;20536;-50
2021/01/01 09:59:26;;;;;;;16.52;9.40;;;;;;;21.17;26.07;93294.44;5070298;28;20455;-45
2021/01/01 10:01:52;;;;;;;5.85;3.80;;;;;;;21.68;24.03;93290.78;5070449;28;20048;-46
2021/01/01 10:04:17;;;;;;;6.82;5.10;;;;;;;21.65;24.70;93283.63;5069366;28;20025;-46
2021/01/01 10:06:43;;;;;;;9.63;5.88;;;;;;;22.27;25.09;93277.56;5070987;28;20099;-46
2021/01/01 10:09:08;;;;;;;12.10;7.18;;;;;;;21.56;24.26;93284.56;5064207;28;20394;-46
2021/01/01 10:11:33;;;;;;;4.07;3.15;;;;;;;22.42;24.88;93282.53;5053047;28;20056;-45
2021/01/01 10:13:59;;;;;;;7.05;4.15;;;;;;;22.61;23.50;93275.69;5050492;28;20425;-44
2021/01/01 10:16:24;;;;;;;6.55;4.35;;;;;;;22.54;23.79;93290.81;5051303;28;20025;-45
2021/01/01 10:18:50;;;;;;;4.35;2.90;;;;;;;22.36;23.20;93281.50;5070638;28;20052;-45
2021/01/01 10:21:19;;;;;;;6.63;4.25;;;;;;;22.16;24.14;93286.88;5065050;28;20046;-45
2021/01/01 10:23:45;;;;;;;5.03;3.63;;;;;;;22.14;24.88;93286.03;5060751;28;20024;-46
2021/01/01 10:26:10;;;;;;;5.10;2.85;;;;;;;22.01;23.20;93262.25;5059481;28;20468;-45
2021/01/01 10:28:36;;;;;;;7.13;2.55;;;;;;;22.57;23.85;93276.19;5070314;28;20409;-45
2021/01/01 10:31:01;;;;;;;6.97;2.80;;;;;;;22.57;23.06;93276.19;5070163;28;20047;-47
2021/01/01 10:33:26;;;;;;;6.57;2.40;;;;;;;22.74;23.20;93274.88;5067215;28;20040;-44
2021/01/01 10:35:52;;;;;;;4.35;2.90;;;;;;;22.01;24.18;93253.06;5070050;28;20063;-45
2021/01/01 10:38:18;;;;;;;6.55;4.50;;;;;;;22.62;23.86;93268.69;5069729;28;20470;-45
2021/01/01 10:40:43;;;;;;;7.25;4.32;;;;;;;22.59;23.08;93269.97;5069835;28;20036;-45
2021/01/01 10:43:09;;;;;;;20.85;2.63;;;;;;;21.60;23.64;93258.75;5058059;28;20032;-45
2021/01/01 10:45:34;;;;;;;6.05;3.92;;;;;;;21.73;23.68;93266.44;5052362;28;20059;-44
2021/01/01 10:47:59;;;;;;;5.57;3.15;;;;;;;22.17;23.05;93262.31;5065504;28;20028;-46
2021/01/01 10:50:25;;;;;;;4.88;2.50;;;;;;;22.48;22.95;93251.84;5070253;28;20030;-47
2021/01/01 10:52:51;;;;;;;3.97;2.65;;;;;;;22.72;22.90;93249.47;5069540;28;20107;-44
2021/01/01 10:55:16;;;;;;;4.32;2.38;;;;;;;22.69;23.62;93255.63;5070217;28;20033;-44
2021/01/01 10:57:41;;;;;;;4.10;2.88;;;;;;;22.31;22.83;93254.53;5075806;28;20035;-45
2021/01/01 11:00:08;;;;;;;3.85;1.77;;;;;;;22.25;23.35;93254.25;5078984;28;20035;-43
2021/01/01 11:02:33;;;;;;;3.50;2.38;;;;;;;22.01;23.66;93256.63;5068913;28;20032;-46
2021/01/01 11:04:59;;;;;;;2.75;2.10;;;;;;;22.03;24.08;93250.34;5069703;28;20481;-46
2021/01/01 11:07:24;;;;;;;4.65;2.83;;;;;;;22.49;22.26;93249.78;5070027;28;20028;-43
2021/01/01 11:09:49;;;;;;;4.95;1.60;;;;;;;21.63;23.92;93249.09;5073047;28;20481;-45
2021/01/01 11:12:15;;;;;;;3.55;2.22;;;;;;;21.76;23.36;93239.91;5073643;28;20028;-45
2021/01/01 12:24:00;;;;;;;9.50;4.68;;;;;;;18.92;26.98;93255.06;5050603;28;20040;-46
2021/01/01 12:26:26;;;;;;;4.50;1.85;;;;;;;18.74;27.93;93262.34;5051052;28;20242;-46
2021/01/01 12:28:52;;;;;;;6.13;3.40;;;;;;;18.57;27.98;93240.34;5051384;28;20036;-47
2021/01/01 12:31:17;;;;;;;3.53;2.33;;;;;;;18.28;28.21;93270.66;5033938;28;20028;-48
2021/01/01 12:33:42;;;;;;;8.40;4.25;;;;;;;18.18;28.43;93271.47;5033914;28;20104;-49
2021/01/01 12:36:08;;;;;;;7.22;4.50;;;;;;;18.11;28.82;93271.69;5034626;28;20498;-47
2021/01/01 12:38:33;;;;;;;5.43;2.28;;;;;;;17.55;29.37;93271.59;5052276;28;20271;-46